Terminal Aerodrome Forecast
Issued by NWS Des Moines, IA

Home | Current Version | Previous Version | Text Only | Print | Product List | Glossary On
Versions: 1 2 3 4 5 6 7 8 9 10 11 12 13 14 15 16 17 18 19 20 21 22 23 24 25
000
FTUS43 KDMX 230824 AAA
TAFALO
TAF AMD
KALO 230824Z 2308/2406 16008KT 6SM -SHRA BR SCT018 OVC035
     FM231500 22007KT P6SM SCT008 BKN025
     FM231900 24006KT P6SM SKC
     FM232300 21003KT P6SM SKC=

USA.gov is the U.S. government's official web portal to all federal, state and local government web resources and services.